[source: ADDS]
METAR
EDVE 291750Z VRB01KT CAVOK 12/09 Q1017

TAF EDVE 291700Z 2918/2921 22007KT 9999 SCT035 EDDV 291820Z 18003KT 9999 BKN028 15/10 Q1016 NOSIG

TAF EDDV 291700Z 2918/3018 18005KT 9999 SCT030 BECMG 2920/2923 BKN013 TEMPO 2922/3008 VRB03KT 4000 -DZ BKN007 PROB30 TEMPO 3000/3007 2000 BR BKN004 BECMG 3007/3009 SCT015 ETHS 291820Z 14002KT 9999 SCT100 10/09 Q1017 BLU+

TAF ETHS 291320Z 2914/2923 20008KT 9999 NSW SCT035 SCT070 BECMG 2919/2921 18005KT 9999 NSW BKN020 BKN070 TEMPO 2921/2923 19002KT 5000 -DZRA BKN008 BKN015 ETHC 291820Z 13001KT 9999 FEW060 BKN100 14/09 Q1016 BLU

TAF ETHC 291329Z 2914/2923 21006KT 9999 NSW FEW035 SCT280 BECMG 2919/2921 23007KT 9000 NSW BKN020 BKN070 TEMPO 2922/2923 24007KT 2000 -DZRA BKN007 BKN015 EDVK 291750Z 20004KT 170V240 9999 SCT015 BKN022 13/11 Q1017

TAF EDVK 291700Z 2918/3003 19004KT 9999 BKN020 BECMG 2918/2920 BKN010 TEMPO 2918/3003 2000 DZ BR OVC004
TAF
TAF EDVE 291700Z 2918/2921 22007KT 9999 SCT035

TAF EDDV 291700Z 2918/3018 18005KT 9999 SCT030 BECMG 2920/2923 BKN013 TEMPO 2922/3008 VRB03KT 4000 -DZ BKN007 PROB30 TEMPO 3000/3007 2000 BR BKN004 BECMG 3007/3009 SCT015

TAF ETHS 291320Z 2914/2923 20008KT 9999 NSW SCT035 SCT070 BECMG 2919/2921 18005KT 9999 NSW BKN020 BKN070 TEMPO 2921/2923 19002KT 5000 -DZRA BKN008 BKN015

TAF ETHC 291329Z 2914/2923 21006KT 9999 NSW FEW035 SCT280 BECMG 2919/2921 23007KT 9000 NSW BKN020 BKN070 TEMPO 2922/2923 24007KT 2000 -DZRA BKN007 BKN015

TAF EDVK 291700Z 2918/3003 19004KT 9999 BKN020 BECMG 2918/2920 BKN010 TEMPO 2918/3003 2000 DZ BR OVC004

SR / SS: 05:16 / 16:59 UTC (EDVE 2020-09-29)
Wir begrüßen Holger als neues Mitglied der FFG! Viel Erfolg bei der Ausbildung! +++ Willkommen in der FFG, Timon! Viel Erfolg bei der Ausbildung! +++ Florian hat seine Fluglehrer-Anwärterzeit beendet. Wir wünschen weiterhin viel Erfolg beim Ausbilden! +++ Wir begrüßen Stefan in den Reihen der FFG! Viel Erfolg bei der Ausbildung! +++ Herzlich willkommen Dominic! Viel Spass bei der Ausbildung! +++ Wir heißen Fabian als neuen Flugschüler willkommen und wünschen eine erfolgreiche Ausbildung! +++ Wir begrüßen Oussama als neues Mitglied der FFG! Viel Erfolg bei der Ausbildung! +++ Willkommen in der FFG Paul! Viel Erfolg bei der Ausbildung! +++ Wir begrüßen Julian und Martin als neue Mitglieder der FFG! Viel Erfolg bei der Ausbildung! +++ Oliver hat seinen ersten Alleinflug absolviert! Herzlichen Glückwunsch und weiterhin Happy Landings!

Neues Bild in 60 Sekunden

Letztes NOTAM EDVE
von 29.09.2020 1622Z bis 24.10.2020 2359Z
SAT, SUN, HOL AD RFFS 1 ONLY. ACFT LARGER THAN 2000KG MTOM AND 4 POB PPR. REQ FOR RFFS INCREASES UP TO RFFS 6 FOR FLT ON THE NEXT DAY [more]

Letztes NOTAM EDCB
von 01.09.2020 0700Z bis 24.10.2020 2359Z
0700-1600
HOURS OF OPERATION CHANGED: 0700-1600, OTHER TIMES PPR.

Letztes NOTAM EDBC
von 02.09.2020 0006Z bis 01.12.2020 2359Z
AD CLSD.

Letztes NOTAM EDVM
von 26.09.2020 1557Z bis PERM
DROPPING ZONE HILDESHEIM 521047N 0095644E, HOURS OF OPERATION DAILY SR-SS+30. AIP GERMANY ENR 5.5-2 REFERS.
GND- FL100

Letztes NOTAM EDDV
von 14.10.2020 0700Z bis 14.10.2020 1100Z
VOR NIE/NIENBURG 116.5 MHZ ON MAINT. DO NOT USE, FALSE INDICATIONS POSS.

Letztes NOTAM EDVK
von 08.10.2020 0000Z bis 17.12.2020 2359Z
BREMEN RADAR FREQ CHANGED TO READ 126.655MHZ. CHANGES ARE PERM.

Letztes NOTAM EDVS
von 03.08.2020 0917Z bis 01.11.2020 2359Z
AD AVBL ONLY FOR HOMEBASED PILOTS.

          aerodata150     Radio38